createdAt,value
2023-02-12T00:00:14.980Z,7
2023-02-12T00:05:16.676Z,7
2023-02-12T00:10:18.341Z,11
2023-02-12T00:15:20.102Z,8
2023-02-12T00:20:21.841Z,7
2023-02-12T00:25:23.455Z,9
2023-02-12T00:30:25.216Z,7
2023-02-12T00:35:26.849Z,5
2023-02-12T00:40:28.588Z,6
2023-02-12T00:45:30.581Z,11
2023-02-12T00:50:32.204Z,10
2023-02-12T00:55:33.831Z,12
2023-02-12T01:00:35.651Z,11
2023-02-12T01:05:37.346Z,8
2023-02-12T01:10:39.006Z,10
2023-02-12T01:15:40.816Z,7
2023-02-12T01:20:42.424Z,6
2023-02-12T01:25:44.101Z,8
2023-02-12T01:30:45.891Z,7
2023-02-12T01:35:47.567Z,8
2023-02-12T01:40:49.327Z,9
2023-02-12T01:45:51.054Z,8
2023-02-12T01:50:52.698Z,8
2023-02-12T01:55:54.922Z,9
2023-02-12T02:00:56.935Z,7
2023-02-12T02:05:58.870Z,10
2023-02-12T02:11:01.635Z,10
2023-02-12T02:16:03.498Z,9
2023-02-12T02:21:05.195Z,9
2023-02-12T02:26:06.843Z,9
2023-02-12T02:31:08.796Z,11
2023-02-12T02:36:10.556Z,9
2023-02-12T02:41:12.217Z,9
2023-02-12T02:46:14.080Z,9
2023-02-12T02:51:15.858Z,6
2023-02-12T02:56:17.629Z,12
2023-02-12T03:01:19.565Z,10
2023-02-12T03:06:21.231Z,9
2023-02-12T03:11:22.836Z,8
2023-02-12T03:16:24.631Z,9
2023-02-12T03:21:26.548Z,9
2023-02-12T03:26:28.267Z,9
2023-02-12T03:31:30.009Z,9
2023-02-12T03:36:31.723Z,5
2023-02-12T03:41:33.626Z,9
2023-02-12T03:46:35.612Z,11
2023-02-12T03:51:37.365Z,10
2023-02-12T03:56:38.997Z,9
2023-02-12T04:01:40.849Z,9
2023-02-12T04:06:42.703Z,8
2023-02-12T04:11:44.350Z,10
2023-02-12T04:16:46.182Z,10
2023-02-12T04:21:47.938Z,9
2023-02-12T04:26:49.682Z,9
2023-02-12T04:31:51.521Z,6
2023-02-12T04:36:53.394Z,9
2023-02-12T04:41:55.088Z,10
2023-02-12T04:46:56.822Z,9
2023-02-12T04:51:58.481Z,9
2023-02-12T04:57:00.116Z,13
2023-02-12T05:02:01.899Z,13
2023-02-12T05:07:03.516Z,10
2023-02-12T05:12:05.116Z,10
2023-02-12T05:17:06.880Z,10
2023-02-12T05:22:08.714Z,10
2023-02-12T05:27:10.438Z,9
2023-02-12T05:32:12.257Z,11
2023-02-12T05:37:13.984Z,14
2023-02-12T05:42:15.658Z,10
2023-02-12T05:47:17.477Z,8
2023-02-12T05:52:19.186Z,9
2023-02-12T05:57:20.816Z,9
2023-02-12T06:02:22.586Z,11
2023-02-12T06:07:24.229Z,11
2023-02-12T06:12:25.869Z,7
2023-02-12T06:17:27.616Z,9
2023-02-12T06:22:29.266Z,9
2023-02-12T06:27:30.897Z,7
2023-02-12T06:32:32.679Z,5
2023-02-12T06:37:34.245Z,5
2023-02-12T06:42:35.904Z,8
2023-02-12T06:47:37.698Z,7
2023-02-12T06:52:39.356Z,6
2023-02-12T06:57:40.983Z,7
2023-02-12T07:02:42.727Z,5
2023-02-12T07:07:44.443Z,4
2023-02-12T07:12:46.078Z,5
2023-02-12T07:17:47.793Z,6
2023-02-12T07:22:49.416Z,7
2023-02-12T07:27:51.133Z,5
2023-02-12T07:32:52.820Z,5
2023-02-12T07:37:54.490Z,5
2023-02-12T07:42:56.190Z,5
2023-02-12T07:47:58.006Z,5
2023-02-12T07:52:59.733Z,5
2023-02-12T07:58:01.314Z,5
2023-02-12T08:03:02.960Z,5
2023-02-12T08:08:04.670Z,6
2023-02-12T08:13:06.380Z,5
2023-02-12T08:18:08.162Z,6
2023-02-12T08:23:09.905Z,4
2023-02-12T08:28:11.573Z,4
2023-02-12T08:33:13.411Z,5
2023-02-12T08:38:15.043Z,5
2023-02-12T08:43:16.863Z,4
2023-02-12T08:48:18.915Z,4
2023-02-12T08:53:20.512Z,4
2023-02-12T08:58:22.204Z,4
2023-02-12T09:03:24.001Z,3
2023-02-12T09:08:25.602Z,3
2023-02-12T09:13:27.280Z,5
2023-02-12T09:18:29.035Z,2
2023-02-12T09:23:30.635Z,3
2023-02-12T09:28:32.402Z,5
2023-02-12T09:33:34.371Z,4
2023-02-12T09:38:36.004Z,5
2023-02-12T09:43:37.717Z,5
2023-02-12T09:48:39.560Z,5
2023-02-12T09:53:41.311Z,5
2023-02-12T09:58:42.970Z,4
2023-02-12T10:03:44.645Z,4
2023-02-12T10:08:46.283Z,3
2023-02-12T10:13:47.943Z,4
2023-02-12T10:18:49.853Z,4
2023-02-12T10:23:51.505Z,5
2023-02-12T10:28:53.137Z,3
2023-02-12T10:33:54.993Z,3
2023-02-12T10:38:56.692Z,5
2023-02-12T10:43:58.308Z,5
2023-02-12T10:49:00.101Z,4
2023-02-12T10:54:01.756Z,4
2023-02-12T10:59:03.397Z,9
2023-02-12T11:04:05.113Z,6
2023-02-12T11:09:06.810Z,6
2023-02-12T11:14:08.463Z,6
2023-02-12T11:19:10.215Z,6
2023-02-12T11:24:12.053Z,5
2023-02-12T11:29:13.903Z,7
2023-02-12T11:34:15.682Z,4
2023-02-12T11:39:17.332Z,5
2023-02-12T11:44:18.973Z,5
2023-02-12T11:49:20.693Z,5
2023-02-12T11:54:22.460Z,7
2023-02-12T11:59:24.205Z,7
2023-02-12T12:04:25.894Z,7
2023-02-12T12:09:27.521Z,8
2023-02-12T12:14:29.409Z,6
2023-02-12T12:19:31.154Z,6
2023-02-12T12:24:32.819Z,9
2023-02-12T12:29:34.562Z,5
2023-02-12T12:34:36.337Z,6
2023-02-12T12:39:38.181Z,7
2023-02-12T12:44:39.807Z,8
2023-02-12T12:49:41.500Z,6
2023-02-12T12:54:43.263Z,6
2023-02-12T12:59:44.966Z,7
2023-02-12T13:04:46.543Z,31
2023-02-12T13:09:48.204Z,29
2023-02-12T13:14:49.891Z,13
2023-02-12T13:19:51.530Z,8
2023-02-12T13:24:53.194Z,8
2023-02-12T13:29:54.900Z,7
2023-02-12T13:34:56.544Z,6
2023-02-12T13:39:58.214Z,8
2023-02-12T13:44:59.965Z,12
2023-02-12T13:50:01.629Z,10
2023-02-12T13:55:03.327Z,7
2023-02-12T14:00:05.173Z,11
2023-02-12T14:05:06.954Z,15
2023-02-12T14:10:08.569Z,13
2023-02-12T14:15:10.338Z,8
2023-02-12T14:20:12.119Z,7
2023-02-12T14:25:13.965Z,7
2023-02-12T14:30:15.644Z,6
2023-02-12T14:35:17.354Z,6
2023-02-12T14:40:19.255Z,10
2023-02-12T14:45:21.020Z,13
2023-02-12T14:50:22.793Z,12
2023-02-12T14:55:24.501Z,7
2023-02-12T15:00:26.390Z,10
2023-02-12T15:05:28.172Z,9
2023-02-12T15:10:29.847Z,7
2023-02-12T15:15:31.614Z,9
2023-02-12T15:20:33.477Z,14
2023-02-12T15:25:35.086Z,11
2023-02-12T15:30:36.831Z,11
2023-02-12T15:35:38.554Z,11
2023-02-12T15:40:40.208Z,11
2023-02-12T15:45:42.019Z,11
2023-02-12T15:50:43.844Z,14
2023-02-12T15:55:45.505Z,15
2023-02-12T16:00:47.190Z,11
2023-02-12T16:05:48.819Z,17
2023-02-12T16:10:50.416Z,16
2023-02-12T16:15:52.262Z,14
2023-02-12T16:20:53.941Z,12
2023-02-12T16:25:56.020Z,12
2023-02-12T16:30:57.789Z,11
2023-02-12T16:35:59.403Z,14
2023-02-12T16:41:01.040Z,11
2023-02-12T16:46:02.884Z,11
2023-02-12T16:51:04.650Z,13
2023-02-12T16:56:06.281Z,10
2023-02-12T17:01:08.074Z,10
2023-02-12T17:06:09.727Z,12
2023-02-12T17:11:11.587Z,11
2023-02-12T17:16:21.635Z,11
2023-02-12T17:21:30.310Z,10
2023-02-12T17:26:31.966Z,13
2023-02-12T17:31:34.026Z,11
2023-02-12T17:36:35.726Z,9
2023-02-12T17:41:37.353Z,11
2023-02-12T17:46:39.131Z,10
2023-02-12T17:51:40.733Z,14
2023-02-12T17:56:42.348Z,10
2023-02-12T18:01:44.038Z,13
2023-02-12T18:06:45.763Z,12
2023-02-12T18:11:47.442Z,10
2023-02-12T18:16:49.194Z,11
2023-02-12T18:21:50.922Z,14
2023-02-12T18:26:52.587Z,13
2023-02-12T18:31:54.345Z,14
2023-02-12T18:36:56.051Z,14
2023-02-12T18:41:57.629Z,14
2023-02-12T18:46:59.531Z,13
2023-02-12T18:52:03.229Z,11
2023-02-12T18:57:04.801Z,13
2023-02-12T19:02:06.673Z,11
2023-02-12T19:07:08.560Z,12
2023-02-12T19:12:10.147Z,12
2023-02-12T19:17:11.880Z,10
2023-02-12T19:22:13.556Z,10
2023-02-12T19:27:15.186Z,10
2023-02-12T19:32:16.956Z,13
2023-02-12T19:37:18.797Z,13
2023-02-12T19:42:20.451Z,10
2023-02-12T19:47:22.161Z,9
2023-02-12T19:52:23.775Z,14
2023-02-12T19:57:25.570Z,14
2023-02-12T20:02:27.283Z,18
2023-02-12T20:07:29.014Z,17
2023-02-12T20:12:30.674Z,16
2023-02-12T20:17:32.618Z,16
2023-02-12T20:22:34.248Z,17
2023-02-12T20:27:35.924Z,17
2023-02-12T20:32:37.597Z,17
2023-02-12T20:37:39.204Z,13
2023-02-12T20:42:40.835Z,12
2023-02-12T20:47:42.550Z,8
2023-02-12T20:52:44.169Z,8
2023-02-12T20:57:45.848Z,9
2023-02-12T21:02:47.748Z,9
2023-02-12T21:07:49.421Z,12
2023-02-12T21:12:51.087Z,10
2023-02-12T21:17:52.886Z,10
2023-02-12T21:22:54.511Z,9
2023-02-12T21:27:56.176Z,12
2023-02-12T21:32:57.860Z,10
2023-02-12T21:37:59.468Z,12
2023-02-12T21:43:01.349Z,15
2023-02-12T21:48:03.088Z,9
2023-02-12T21:53:04.755Z,11
2023-02-12T21:58:06.369Z,14
2023-02-12T22:03:08.123Z,14
2023-02-12T22:08:09.762Z,10
2023-02-12T22:13:11.424Z,10
2023-02-12T22:18:13.204Z,10
2023-02-12T22:23:15.012Z,9
2023-02-12T22:28:16.673Z,8
2023-02-12T22:33:18.417Z,9
2023-02-12T22:38:20.084Z,12
2023-02-12T22:43:21.835Z,12
2023-02-12T22:48:23.613Z,10
2023-02-12T22:53:25.362Z,9
2023-02-12T22:58:27.036Z,9
2023-02-12T23:03:28.831Z,10
2023-02-12T23:08:30.489Z,8
2023-02-12T23:13:32.216Z,9
2023-02-12T23:18:34.161Z,9
2023-02-12T23:23:35.867Z,9
2023-02-12T23:28:37.792Z,9
2023-02-12T23:33:39.589Z,10
2023-02-12T23:38:41.233Z,8
2023-02-12T23:43:42.881Z,9
2023-02-12T23:48:44.625Z,6
2023-02-12T23:53:46.414Z,9
2023-02-12T23:58:48.093Z,9
